Stanford in the Vale, United Kingdom
Current Conditions -  °F | °C
As of 6:50 AM on Friday 31 Oct 2014 (Local Time) from EGVN Reporting Station
Light Fog Light Fog  
Wind Chill: 55°   Ceiling: 24000
Heat Index: 55°   Visibility: 1.8mi
Dew Point: 55°   Wind: 2mph
Humidity: 100%   Direction: 90°E
Pressure: 30"   Gusts: NA
Location:  51.64°N, 1.51°W
Report Text: EGVN 310650Z 09002KT 3000 MIFG BKN240 13/13 Q1016 BECMG 5000
Loading
Personal Weather Stations






























Interactive Weather Map New forecast layout! Learn more

10-Day Weather Forecast

Advertisements
Track Severe Weather on mobile